createdAt,value
2017-11-28T00:03:57.307Z,55.20
2017-11-28T00:09:26.194Z,56.40
2017-11-28T00:14:54.357Z,56.50
2017-11-28T00:20:23.253Z,57.80
2017-11-28T00:25:51.384Z,57.80
2017-11-28T00:31:19.520Z,58.40
2017-11-28T00:36:48.091Z,59.30
2017-11-28T00:42:16.219Z,59.80
2017-11-28T00:47:44.354Z,60.10
2017-11-28T00:53:12.485Z,60.40
2017-11-28T00:58:40.637Z,60.80
2017-11-28T01:04:09.538Z,60.90
2017-11-28T01:09:37.694Z,60.90
2017-11-28T01:15:06.601Z,61.40
2017-11-28T01:20:34.762Z,60.70
2017-11-28T01:26:03.695Z,61.30
2017-11-28T01:31:44.685Z,61.20
2017-11-28T01:37:13.160Z,61.20
2017-11-28T01:42:41.323Z,61.60
2017-11-28T01:48:15.170Z,61.60
2017-11-28T01:53:43.302Z,61.80
2017-11-28T01:59:11.490Z,61.90
2017-11-28T02:04:50.842Z,61.80
2017-11-28T02:10:19.787Z,61.70
2017-11-28T02:15:48.260Z,61.60
2017-11-28T02:21:16.473Z,61.50
2017-11-28T02:26:45.041Z,61.60
2017-11-28T02:32:13.982Z,62.30
2017-11-28T02:37:42.138Z,62.30
2017-11-28T02:43:10.564Z,62.50
2017-11-28T02:48:39.043Z,62.70
2017-11-28T02:54:19.329Z,62.70
2017-11-28T02:59:50.304Z,62.70
2017-11-28T03:05:18.511Z,62.90
2017-11-28T03:10:56.577Z,62.90
2017-11-28T03:16:28.023Z,62.80
2017-11-28T03:28:15.414Z,63.60
2017-11-28T03:33:43.568Z,63.70
2017-11-28T03:39:12.039Z,63.90
2017-11-28T03:51:01.531Z,64.00
2017-11-28T03:56:29.675Z,64.30
2017-11-28T04:01:57.879Z,64.60
2017-11-28T04:07:26.093Z,64.70
2017-11-28T04:12:54.254Z,64.80
2017-11-28T04:18:22.474Z,64.80
2017-11-28T04:23:50.615Z,65.00
2017-11-28T04:29:23.401Z,65.10
2017-11-28T04:34:51.611Z,64.90
2017-11-28T04:40:31.358Z,65.10
2017-11-28T04:45:59.544Z,65.30
2017-11-28T04:51:27.687Z,66.00
2017-11-28T04:56:55.837Z,65.50
2017-11-28T05:02:26.000Z,65.50
2017-11-28T05:07:54.422Z,65.60
2017-11-28T05:13:23.658Z,65.80
2017-11-28T05:18:52.581Z,66.10
2017-11-28T05:24:31.109Z,66.00
2017-11-28T05:29:59.262Z,66.10
2017-11-28T05:35:27.504Z,66.10
2017-11-28T05:40:55.668Z,66.30
2017-11-28T05:46:30.188Z,66.40
2017-11-28T05:52:00.156Z,66.40
2017-11-28T05:57:28.363Z,66.40
2017-11-28T06:02:56.574Z,66.20
2017-11-28T06:08:29.132Z,66.10
2017-11-28T06:13:58.160Z,65.60
2017-11-28T06:19:26.374Z,65.60
2017-11-28T06:24:54.600Z,65.10
2017-11-28T06:30:22.884Z,64.70
2017-11-28T06:35:51.104Z,64.30
2017-11-28T06:41:19.249Z,63.80
2017-11-28T06:46:47.395Z,64.20
2017-11-28T06:52:16.365Z,63.10
2017-11-28T06:57:44.586Z,63.10
2017-11-28T07:03:12.775Z,63.10
2017-11-28T07:08:41.683Z,63.60
2017-11-28T07:14:09.870Z,63.00
2017-11-28T07:19:38.000Z,63.00
2017-11-28T07:25:06.222Z,62.90
2017-11-28T07:30:34.379Z,62.80
2017-11-28T07:36:02.533Z,62.70
2017-11-28T07:41:30.684Z,62.50
2017-11-28T07:46:58.911Z,62.40
2017-11-28T07:52:27.088Z,62.40
2017-11-28T07:57:55.294Z,62.30
2017-11-28T08:03:24.182Z,61.80
2017-11-28T08:08:52.413Z,61.80
2017-11-28T08:14:20.554Z,61.70
2017-11-28T08:19:48.756Z,61.50
2017-11-28T08:25:16.889Z,61.40
2017-11-28T08:30:45.105Z,60.90
2017-11-28T08:36:13.265Z,61.10
2017-11-28T08:41:41.452Z,60.90
2017-11-28T08:47:09.617Z,60.70
2017-11-28T08:52:37.774Z,60.60
2017-11-28T08:58:06.003Z,60.40
2017-11-28T09:03:34.198Z,60.40
2017-11-28T09:09:02.400Z,60.00
2017-11-28T09:14:30.574Z,59.60
2017-11-28T09:19:58.726Z,59.50
2017-11-28T09:25:26.927Z,59.70
2017-11-28T09:30:55.899Z,59.20
2017-11-28T09:36:29.880Z,59.20
2017-11-28T09:41:58.014Z,58.80
2017-11-28T09:47:26.182Z,58.50
2017-11-28T09:52:54.345Z,58.10
2017-11-28T09:58:22.491Z,57.80
2017-11-28T10:03:50.633Z,57.60
2017-11-28T10:09:19.544Z,57.10
2017-11-28T10:14:47.688Z,57.10
2017-11-28T10:20:16.609Z,56.40
2017-11-28T10:25:44.744Z,56.30
2017-11-28T10:31:13.639Z,56.00
2017-11-28T10:36:41.777Z,55.90
2017-11-28T10:42:09.920Z,55.90
2017-11-28T10:47:38.826Z,55.50
2017-11-28T10:53:07.004Z,55.40
2017-11-28T10:58:35.156Z,55.50
2017-11-28T11:04:03.312Z,55.10
2017-11-28T11:09:32.227Z,54.90
2017-11-28T11:15:00.387Z,54.90
2017-11-28T11:20:28.550Z,54.90
2017-11-28T11:25:56.689Z,55.00
2017-11-28T11:31:24.844Z,54.90
2017-11-28T11:36:52.968Z,54.80
2017-11-28T11:42:21.106Z,55.00
2017-11-28T11:47:49.244Z,55.80
2017-11-28T11:53:17.417Z,56.60
2017-11-28T11:58:46.305Z,57.10
2017-11-28T12:04:14.489Z,57.10
2017-11-28T12:09:42.634Z,57.30
2017-11-28T12:15:10.787Z,57.50
2017-11-28T12:20:38.960Z,57.80
2017-11-28T12:26:07.122Z,57.80
2017-11-28T12:31:35.244Z,57.90
2017-11-28T12:37:03.392Z,58.10
2017-11-28T12:42:32.323Z,58.30
2017-11-28T12:48:01.226Z,58.30
2017-11-28T12:53:29.387Z,58.30
2017-11-28T12:58:58.281Z,58.30
2017-11-28T13:04:26.422Z,58.30
2017-11-28T13:09:55.331Z,58.30
2017-11-28T13:15:23.474Z,58.30
2017-11-28T13:20:51.607Z,58.30
2017-11-28T13:26:20.572Z,58.00
2017-11-28T13:31:48.695Z,58.00
2017-11-28T13:37:16.838Z,57.90
2017-11-28T13:42:44.979Z,57.90
2017-11-28T13:48:13.122Z,58.00
2017-11-28T13:53:42.018Z,58.10
2017-11-28T13:59:10.162Z,58.10
2017-11-28T14:04:38.307Z,58.30
2017-11-28T14:10:06.460Z,58.20
2017-11-28T14:15:34.646Z,58.30
2017-11-28T14:21:09.173Z,58.40
2017-11-28T14:26:46.851Z,58.30
2017-11-28T14:38:24.551Z,58.70
2017-11-28T14:43:57.543Z,59.00
2017-11-28T14:49:25.683Z,59.30
2017-11-28T14:54:59.394Z,59.50
2017-11-28T15:00:33.310Z,59.70
2017-11-28T15:06:07.066Z,60.20
2017-11-28T15:11:48.915Z,60.80
2017-11-28T15:17:22.628Z,61.50
2017-11-28T15:23:00.769Z,60.90
2017-11-28T15:28:29.066Z,61.20
2017-11-28T15:33:57.289Z,61.30
2017-11-28T15:39:25.545Z,61.30
2017-11-28T15:44:53.706Z,61.40
2017-11-28T15:50:22.618Z,62.00
2017-11-28T15:55:50.770Z,61.80
2017-11-28T16:01:19.669Z,62.60
2017-11-28T16:06:47.807Z,62.40
2017-11-28T16:12:15.951Z,62.70
2017-11-28T16:17:44.917Z,62.70
2017-11-28T16:23:13.047Z,62.70
2017-11-28T16:28:41.177Z,62.80
2017-11-28T16:34:09.312Z,62.80
2017-11-28T16:39:37.449Z,62.80
2017-11-28T16:45:05.585Z,62.90
2017-11-28T16:50:34.506Z,63.00
2017-11-28T16:56:03.401Z,63.10
2017-11-28T17:01:31.558Z,62.90
2017-11-28T17:07:01.446Z,63.00
2017-11-28T17:12:29.631Z,62.90
2017-11-28T17:17:57.788Z,62.90
2017-11-28T17:23:25.948Z,62.90
2017-11-28T17:28:54.303Z,62.90
2017-11-28T17:34:24.138Z,62.80
2017-11-28T17:39:52.301Z,62.70
2017-11-28T17:45:20.447Z,62.80
2017-11-28T17:50:48.583Z,62.80
2017-11-28T17:56:16.739Z,62.70
2017-11-28T18:01:44.860Z,62.90
2017-11-28T18:07:16.063Z,62.60
2017-11-28T18:12:44.971Z,62.70
2017-11-28T18:18:17.709Z,62.60
2017-11-28T18:23:48.574Z,63.40
2017-11-28T18:29:27.240Z,62.70
2017-11-28T18:34:55.433Z,62.70
2017-11-28T18:40:23.613Z,62.70
2017-11-28T18:45:52.529Z,62.70
2017-11-28T18:51:20.665Z,62.60
2017-11-28T18:56:48.813Z,62.60
2017-11-28T19:02:18.958Z,62.70
2017-11-28T19:07:52.095Z,62.60
2017-11-28T19:13:24.471Z,62.60
2017-11-28T19:18:59.673Z,62.50
2017-11-28T19:24:32.895Z,62.30
2017-11-28T19:30:01.193Z,62.40
2017-11-28T19:35:30.409Z,62.40
2017-11-28T19:40:58.552Z,62.40
2017-11-28T19:46:26.761Z,62.50
2017-11-28T19:51:54.970Z,62.40
2017-11-28T19:57:23.921Z,63.20
2017-11-28T20:02:52.061Z,62.50
2017-11-28T20:08:21.162Z,62.50
2017-11-28T20:13:50.125Z,62.50
2017-11-28T20:19:18.317Z,62.50
2017-11-28T20:24:47.462Z,62.50
2017-11-28T20:30:17.322Z,62.60
2017-11-28T20:35:46.229Z,62.60
2017-11-28T20:41:14.373Z,62.60
2017-11-28T20:46:44.233Z,62.30
2017-11-28T20:52:13.167Z,62.70
2017-11-28T20:57:41.325Z,62.20
2017-11-28T21:03:11.480Z,62.10
2017-11-28T21:08:45.950Z,62.00
2017-11-28T21:14:18.374Z,61.80
2017-11-28T21:19:47.284Z,61.70
2017-11-28T21:25:16.193Z,61.60
2017-11-28T21:30:52.191Z,61.60
2017-11-28T21:36:20.341Z,61.60
2017-11-28T21:41:48.472Z,61.50
2017-11-28T21:47:17.395Z,61.60
2017-11-28T21:52:53.386Z,62.40
2017-11-28T21:58:25.080Z,61.60
2017-11-28T22:03:58.988Z,61.70
2017-11-28T22:09:27.156Z,61.60
2017-11-28T22:14:55.279Z,61.50
2017-11-28T22:20:24.355Z,61.90
2017-11-28T22:25:53.218Z,62.20
2017-11-28T22:31:24.558Z,62.50
2017-11-28T22:36:52.762Z,63.00
2017-11-28T22:42:20.906Z,63.60
2017-11-28T22:47:49.046Z,64.20
2017-11-28T22:53:17.951Z,64.70
2017-11-28T22:58:46.110Z,64.70
2017-11-28T23:04:14.262Z,65.80
2017-11-28T23:09:42.404Z,65.90
2017-11-28T23:15:10.559Z,66.00
2017-11-28T23:20:43.484Z,66.50
2017-11-28T23:26:12.456Z,66.50
2017-11-28T23:31:40.640Z,66.50
2017-11-28T23:37:08.772Z,66.70
2017-11-28T23:42:37.144Z,66.80
2017-11-28T23:48:05.268Z,66.90
2017-11-28T23:53:33.400Z,67.10
2017-11-28T23:59:01.538Z,67.20
